sensor_id;sensor_type;location;lat;lon;timestamp;P1;durP1;ratioP1;P2;durP2;ratioP2
9906;SDS011;4992;51.628;6.664;2023-02-08T00:00:58;18.03;;;11.37;;
9906;SDS011;4992;51.628;6.664;2023-02-08T00:03:24;15.17;;;11.77;;
9906;SDS011;4992;51.628;6.664;2023-02-08T00:05:52;14.30;;;11.00;;
9906;SDS011;4992;51.628;6.664;2023-02-08T00:08:18;16.80;;;12.73;;
9906;SDS011;4992;51.628;6.664;2023-02-08T00:10:44;14.43;;;11.30;;
9906;SDS011;4992;51.628;6.664;2023-02-08T00:13:10;16.70;;;13.10;;
9906;SDS011;4992;51.628;6.664;2023-02-08T00:15:40;20.90;;;15.63;;
9906;SDS011;4992;51.628;6.664;2023-02-08T00:18:06;18.87;;;13.83;;
9906;SDS011;4992;51.628;6.664;2023-02-08T00:20:32;17.20;;;14.27;;
9906;SDS011;4992;51.628;6.664;2023-02-08T00:22:58;20.00;;;14.50;;
9906;SDS011;4992;51.628;6.664;2023-02-08T00:25:24;18.13;;;13.67;;
9906;SDS011;4992;51.628;6.664;2023-02-08T00:27:50;16.47;;;13.63;;
9906;SDS011;4992;51.628;6.664;2023-02-08T00:30:16;20.00;;;16.57;;
9906;SDS011;4992;51.628;6.664;2023-02-08T00:32:42;25.67;;;17.47;;
9906;SDS011;4992;51.628;6.664;2023-02-08T00:35:08;28.47;;;18.87;;
9906;SDS011;4992;51.628;6.664;2023-02-08T00:37:34;25.07;;;18.00;;
9906;SDS011;4992;51.628;6.664;2023-02-08T00:40:00;25.97;;;18.00;;
9906;SDS011;4992;51.628;6.664;2023-02-08T00:42:26;26.37;;;17.70;;
9906;SDS011;4992;51.628;6.664;2023-02-08T00:44:52;22.03;;;15.80;;
9906;SDS011;4992;51.628;6.664;2023-02-08T00:47:18;28.07;;;17.80;;
9906;SDS011;4992;51.628;6.664;2023-02-08T00:49:44;23.20;;;17.30;;
9906;SDS011;4992;51.628;6.664;2023-02-08T00:52:10;21.53;;;16.67;;
9906;SDS011;4992;51.628;6.664;2023-02-08T00:54:36;22.87;;;16.80;;
9906;SDS011;4992;51.628;6.664;2023-02-08T00:57:02;21.50;;;16.27;;
9906;SDS011;4992;51.628;6.664;2023-02-08T00:59:28;19.53;;;16.27;;
9906;SDS011;4992;51.628;6.664;2023-02-08T01:01:55;23.23;;;16.10;;
9906;SDS011;4992;51.628;6.664;2023-02-08T01:04:21;22.23;;;15.47;;
9906;SDS011;4992;51.628;6.664;2023-02-08T01:06:47;22.80;;;15.87;;
9906;SDS011;4992;51.628;6.664;2023-02-08T01:09:13;21.07;;;15.47;;
9906;SDS011;4992;51.628;6.664;2023-02-08T01:11:39;21.13;;;16.13;;
9906;SDS011;4992;51.628;6.664;2023-02-08T01:14:05;20.40;;;15.33;;
9906;SDS011;4992;51.628;6.664;2023-02-08T01:16:32;23.67;;;15.90;;
9906;SDS011;4992;51.628;6.664;2023-02-08T01:18:58;24.07;;;16.60;;
9906;SDS011;4992;51.628;6.664;2023-02-08T01:21:26;23.70;;;17.20;;
9906;SDS011;4992;51.628;6.664;2023-02-08T01:23:52;21.60;;;16.13;;
9906;SDS011;4992;51.628;6.664;2023-02-08T01:26:18;20.63;;;16.20;;
9906;SDS011;4992;51.628;6.664;2023-02-08T01:28:45;21.63;;;15.87;;
9906;SDS011;4992;51.628;6.664;2023-02-08T01:31:12;19.03;;;15.00;;
9906;SDS011;4992;51.628;6.664;2023-02-08T01:33:38;18.97;;;14.27;;
9906;SDS011;4992;51.628;6.664;2023-02-08T01:36:05;20.10;;;14.47;;
9906;SDS011;4992;51.628;6.664;2023-02-08T01:38:31;18.60;;;14.27;;
9906;SDS011;4992;51.628;6.664;2023-02-08T01:40:57;20.97;;;14.60;;
9906;SDS011;4992;51.628;6.664;2023-02-08T01:43:25;15.83;;;13.00;;
9906;SDS011;4992;51.628;6.664;2023-02-08T01:45:51;18.13;;;12.83;;
9906;SDS011;4992;51.628;6.664;2023-02-08T01:48:19;17.50;;;13.47;;
9906;SDS011;4992;51.628;6.664;2023-02-08T01:50:51;16.77;;;12.30;;
9906;SDS011;4992;51.628;6.664;2023-02-08T01:53:19;18.67;;;12.83;;
9906;SDS011;4992;51.628;6.664;2023-02-08T01:55:47;16.60;;;12.87;;
9906;SDS011;4992;51.628;6.664;2023-02-08T01:58:13;16.57;;;13.00;;
9906;SDS011;4992;51.628;6.664;2023-02-08T02:00:40;17.80;;;13.57;;
9906;SDS011;4992;51.628;6.664;2023-02-08T02:03:06;16.87;;;12.87;;
9906;SDS011;4992;51.628;6.664;2023-02-08T02:05:34;16.23;;;13.50;;
9906;SDS011;4992;51.628;6.664;2023-02-08T02:08:02;19.73;;;13.73;;
9906;SDS011;4992;51.628;6.664;2023-02-08T02:10:30;18.50;;;13.23;;
9906;SDS011;4992;51.628;6.664;2023-02-08T02:12:57;17.07;;;13.43;;
9906;SDS011;4992;51.628;6.664;2023-02-08T02:15:26;19.43;;;13.53;;
9906;SDS011;4992;51.628;6.664;2023-02-08T02:17:52;16.67;;;13.40;;
9906;SDS011;4992;51.628;6.664;2023-02-08T02:20:28;17.13;;;12.00;;
9906;SDS011;4992;51.628;6.664;2023-02-08T02:39:04;17.60;;;12.87;;
9906;SDS011;4992;51.628;6.664;2023-02-08T02:41:31;15.47;;;11.87;;
9906;SDS011;4992;51.628;6.664;2023-02-08T02:44:31;16.20;;;12.93;;
9906;SDS011;4992;51.628;6.664;2023-02-08T02:47:05;18.80;;;13.40;;
9906;SDS011;4992;51.628;6.664;2023-02-08T02:49:35;18.93;;;12.90;;
9906;SDS011;4992;51.628;6.664;2023-02-08T02:54:44;16.33;;;12.33;;
9906;SDS011;4992;51.628;6.664;2023-02-08T02:57:13;16.30;;;13.10;;
9906;SDS011;4992;51.628;6.664;2023-02-08T02:59:40;16.50;;;12.97;;
9906;SDS011;4992;51.628;6.664;2023-02-08T03:02:07;15.53;;;12.07;;
9906;SDS011;4992;51.628;6.664;2023-02-08T03:12:42;17.37;;;13.50;;
9906;SDS011;4992;51.628;6.664;2023-02-08T03:17:28;17.43;;;13.07;;
9906;SDS011;4992;51.628;6.664;2023-02-08T03:20:04;15.47;;;12.73;;
9906;SDS011;4992;51.628;6.664;2023-02-08T03:25:18;22.50;;;13.27;;
9906;SDS011;4992;51.628;6.664;2023-02-08T03:27:54;16.70;;;12.50;;
9906;SDS011;4992;51.628;6.664;2023-02-08T03:30:29;17.93;;;12.93;;
9906;SDS011;4992;51.628;6.664;2023-02-08T03:36:03;16.57;;;13.70;;
9906;SDS011;4992;51.628;6.664;2023-02-08T03:38:40;19.33;;;13.50;;
9906;SDS011;4992;51.628;6.664;2023-02-08T03:41:08;19.20;;;14.53;;
9906;SDS011;4992;51.628;6.664;2023-02-08T03:43:46;22.67;;;15.20;;
9906;SDS011;4992;51.628;6.664;2023-02-08T03:46:15;22.50;;;15.10;;
9906;SDS011;4992;51.628;6.664;2023-02-08T03:48:45;20.83;;;13.97;;
9906;SDS011;4992;51.628;6.664;2023-02-08T03:51:12;20.97;;;14.60;;
9906;SDS011;4992;51.628;6.664;2023-02-08T03:53:40;17.33;;;12.93;;
9906;SDS011;4992;51.628;6.664;2023-02-08T03:56:11;16.00;;;12.67;;
9906;SDS011;4992;51.628;6.664;2023-02-08T03:58:42;17.33;;;13.53;;
9906;SDS011;4992;51.628;6.664;2023-02-08T04:01:15;18.80;;;14.13;;
9906;SDS011;4992;51.628;6.664;2023-02-08T04:03:42;19.17;;;14.03;;
9906;SDS011;4992;51.628;6.664;2023-02-08T04:06:10;19.60;;;15.43;;
9906;SDS011;4992;51.628;6.664;2023-02-08T04:08:35;21.47;;;14.87;;
9906;SDS011;4992;51.628;6.664;2023-02-08T04:11:01;23.53;;;15.70;;
9906;SDS011;4992;51.628;6.664;2023-02-08T04:13:27;20.97;;;15.63;;
9906;SDS011;4992;51.628;6.664;2023-02-08T04:15:53;26.73;;;15.97;;
9906;SDS011;4992;51.628;6.664;2023-02-08T04:18:19;22.17;;;15.80;;
9906;SDS011;4992;51.628;6.664;2023-02-08T04:20:45;24.60;;;16.70;;
9906;SDS011;4992;51.628;6.664;2023-02-08T04:23:11;25.10;;;16.47;;
9906;SDS011;4992;51.628;6.664;2023-02-08T04:25:37;21.30;;;16.50;;
9906;SDS011;4992;51.628;6.664;2023-02-08T04:28:03;21.30;;;15.50;;
9906;SDS011;4992;51.628;6.664;2023-02-08T04:30:29;20.93;;;16.00;;
9906;SDS011;4992;51.628;6.664;2023-02-08T04:32:55;20.83;;;15.17;;
9906;SDS011;4992;51.628;6.664;2023-02-08T04:35:22;24.67;;;15.37;;
9906;SDS011;4992;51.628;6.664;2023-02-08T04:37:48;22.00;;;15.70;;
9906;SDS011;4992;51.628;6.664;2023-02-08T04:40:14;21.37;;;15.00;;
9906;SDS011;4992;51.628;6.664;2023-02-08T04:42:40;23.10;;;15.37;;
9906;SDS011;4992;51.628;6.664;2023-02-08T04:45:06;21.07;;;16.40;;
9906;SDS011;4992;51.628;6.664;2023-02-08T04:47:32;20.07;;;14.83;;
9906;SDS011;4992;51.628;6.664;2023-02-08T04:49:58;17.87;;;14.40;;
9906;SDS011;4992;51.628;6.664;2023-02-08T04:52:24;21.30;;;15.27;;
9906;SDS011;4992;51.628;6.664;2023-02-08T04:54:49;22.80;;;14.43;;
9906;SDS011;4992;51.628;6.664;2023-02-08T04:57:15;19.83;;;14.80;;
9906;SDS011;4992;51.628;6.664;2023-02-08T04:59:41;20.50;;;15.07;;
9906;SDS011;4992;51.628;6.664;2023-02-08T05:02:07;18.97;;;14.03;;
9906;SDS011;4992;51.628;6.664;2023-02-08T05:04:33;21.10;;;14.03;;
9906;SDS011;4992;51.628;6.664;2023-02-08T05:06:59;19.83;;;14.80;;
9906;SDS011;4992;51.628;6.664;2023-02-08T05:09:25;24.70;;;15.60;;
9906;SDS011;4992;51.628;6.664;2023-02-08T05:11:51;22.50;;;15.10;;
9906;SDS011;4992;51.628;6.664;2023-02-08T05:14:17;22.20;;;15.17;;
9906;SDS011;4992;51.628;6.664;2023-02-08T05:16:43;18.93;;;14.30;;
9906;SDS011;4992;51.628;6.664;2023-02-08T05:19:09;19.07;;;14.57;;
9906;SDS011;4992;51.628;6.664;2023-02-08T05:21:35;22.00;;;15.83;;
9906;SDS011;4992;51.628;6.664;2023-02-08T05:24:01;20.33;;;15.87;;
9906;SDS011;4992;51.628;6.664;2023-02-08T05:26:27;23.37;;;15.63;;
9906;SDS011;4992;51.628;6.664;2023-02-08T05:28:53;22.87;;;15.37;;
9906;SDS011;4992;51.628;6.664;2023-02-08T05:31:20;21.10;;;17.43;;
9906;SDS011;4992;51.628;6.664;2023-02-08T05:33:47;25.10;;;18.70;;
9906;SDS011;4992;51.628;6.664;2023-02-08T05:36:13;22.60;;;18.53;;
9906;SDS011;4992;51.628;6.664;2023-02-08T05:38:39;27.90;;;19.37;;
9906;SDS011;4992;51.628;6.664;2023-02-08T05:41:05;30.40;;;20.73;;
9906;SDS011;4992;51.628;6.664;2023-02-08T05:43:31;29.83;;;20.73;;
9906;SDS011;4992;51.628;6.664;2023-02-08T05:45:57;30.10;;;21.10;;
9906;SDS011;4992;51.628;6.664;2023-02-08T05:48:23;24.17;;;18.10;;
9906;SDS011;4992;51.628;6.664;2023-02-08T05:50:49;26.67;;;18.40;;
9906;SDS011;4992;51.628;6.664;2023-02-08T05:53:15;28.37;;;17.97;;
9906;SDS011;4992;51.628;6.664;2023-02-08T05:55:44;34.10;;;22.23;;
9906;SDS011;4992;51.628;6.664;2023-02-08T05:58:10;42.20;;;25.17;;
9906;SDS011;4992;51.628;6.664;2023-02-08T06:00:36;40.70;;;25.60;;
9906;SDS011;4992;51.628;6.664;2023-02-08T06:03:02;38.93;;;24.70;;
9906;SDS011;4992;51.628;6.664;2023-02-08T06:05:28;43.37;;;26.77;;
9906;SDS011;4992;51.628;6.664;2023-02-08T06:07:54;39.00;;;24.07;;
9906;SDS011;4992;51.628;6.664;2023-02-08T06:10:20;38.77;;;24.47;;
9906;SDS011;4992;51.628;6.664;2023-02-08T06:12:46;41.40;;;24.23;;
9906;SDS011;4992;51.628;6.664;2023-02-08T06:15:12;39.97;;;24.57;;
9906;SDS011;4992;51.628;6.664;2023-02-08T06:17:38;45.73;;;26.40;;
9906;SDS011;4992;51.628;6.664;2023-02-08T06:20:04;60.33;;;30.50;;
9906;SDS011;4992;51.628;6.664;2023-02-08T06:22:30;83.10;;;42.70;;
9906;SDS011;4992;51.628;6.664;2023-02-08T06:24:56;92.70;;;41.23;;
9906;SDS011;4992;51.628;6.664;2023-02-08T06:27:22;105.20;;;46.97;;
9906;SDS011;4992;51.628;6.664;2023-02-08T06:29:48;88.87;;;44.13;;
9906;SDS011;4992;51.628;6.664;2023-02-08T06:32:14;83.70;;;41.63;;
9906;SDS011;4992;51.628;6.664;2023-02-08T06:34:40;63.67;;;32.70;;
9906;SDS011;4992;51.628;6.664;2023-02-08T06:37:06;62.40;;;32.93;;
9906;SDS011;4992;51.628;6.664;2023-02-08T06:39:31;55.87;;;29.40;;
9906;SDS011;4992;51.628;6.664;2023-02-08T06:41:58;49.13;;;27.83;;
9906;SDS011;4992;51.628;6.664;2023-02-08T06:44:24;46.93;;;27.60;;
9906;SDS011;4992;51.628;6.664;2023-02-08T06:46:49;46.40;;;25.83;;
9906;SDS011;4992;51.628;6.664;2023-02-08T06:49:16;46.03;;;26.30;;
9906;SDS011;4992;51.628;6.664;2023-02-08T06:51:42;44.80;;;23.57;;
9906;SDS011;4992;51.628;6.664;2023-02-08T06:54:08;35.37;;;21.83;;
9906;SDS011;4992;51.628;6.664;2023-02-08T06:56:34;34.40;;;19.20;;
9906;SDS011;4992;51.628;6.664;2023-02-08T06:59:00;32.60;;;18.33;;
9906;SDS011;4992;51.628;6.664;2023-02-08T07:01:26;28.50;;;17.43;;
9906;SDS011;4992;51.628;6.664;2023-02-08T07:03:52;25.33;;;16.23;;
9906;SDS011;4992;51.628;6.664;2023-02-08T07:06:18;29.40;;;17.83;;
9906;SDS011;4992;51.628;6.664;2023-02-08T07:08:45;31.90;;;18.83;;
9906;SDS011;4992;51.628;6.664;2023-02-08T07:11:13;28.63;;;17.77;;
9906;SDS011;4992;51.628;6.664;2023-02-08T07:13:39;33.60;;;18.13;;
9906;SDS011;4992;51.628;6.664;2023-02-08T07:16:05;21.40;;;14.17;;
9906;SDS011;4992;51.628;6.664;2023-02-08T07:18:32;18.97;;;12.80;;
9906;SDS011;4992;51.628;6.664;2023-02-08T07:20:58;23.60;;;15.20;;
9906;SDS011;4992;51.628;6.664;2023-02-08T07:23:24;27.60;;;16.00;;
9906;SDS011;4992;51.628;6.664;2023-02-08T07:26:00;27.10;;;16.50;;
9906;SDS011;4992;51.628;6.664;2023-02-08T07:28:26;21.23;;;14.73;;
9906;SDS011;4992;51.628;6.664;2023-02-08T07:30:53;21.43;;;15.30;;
9906;SDS011;4992;51.628;6.664;2023-02-08T07:33:19;23.67;;;15.53;;
9906;SDS011;4992;51.628;6.664;2023-02-08T07:35:45;19.97;;;13.83;;
9906;SDS011;4992;51.628;6.664;2023-02-08T07:38:11;23.10;;;13.57;;
9906;SDS011;4992;51.628;6.664;2023-02-08T07:40:37;18.30;;;13.20;;
9906;SDS011;4992;51.628;6.664;2023-02-08T07:43:03;21.33;;;14.33;;
9906;SDS011;4992;51.628;6.664;2023-02-08T07:45:29;19.20;;;14.10;;
9906;SDS011;4992;51.628;6.664;2023-02-08T07:47:55;21.77;;;14.33;;
9906;SDS011;4992;51.628;6.664;2023-02-08T07:50:21;24.63;;;15.07;;
9906;SDS011;4992;51.628;6.664;2023-02-08T07:52:47;23.20;;;14.70;;
9906;SDS011;4992;51.628;6.664;2023-02-08T07:55:13;22.20;;;14.97;;
9906;SDS011;4992;51.628;6.664;2023-02-08T07:57:44;19.47;;;14.57;;
9906;SDS011;4992;51.628;6.664;2023-02-08T08:00:10;19.97;;;14.30;;
9906;SDS011;4992;51.628;6.664;2023-02-08T08:02:37;21.87;;;14.57;;
9906;SDS011;4992;51.628;6.664;2023-02-08T08:05:03;23.97;;;15.13;;
9906;SDS011;4992;51.628;6.664;2023-02-08T08:07:29;23.97;;;15.20;;
9906;SDS011;4992;51.628;6.664;2023-02-08T08:09:54;31.33;;;16.03;;
9906;SDS011;4992;51.628;6.664;2023-02-08T08:12:20;22.83;;;15.07;;
9906;SDS011;4992;51.628;6.664;2023-02-08T08:14:48;22.83;;;14.90;;
9906;SDS011;4992;51.628;6.664;2023-02-08T08:17:14;21.57;;;14.57;;
9906;SDS011;4992;51.628;6.664;2023-02-08T08:19:40;25.80;;;15.13;;
9906;SDS011;4992;51.628;6.664;2023-02-08T08:22:06;24.57;;;16.43;;
9906;SDS011;4992;51.628;6.664;2023-02-08T08:24:32;23.13;;;15.00;;
9906;SDS011;4992;51.628;6.664;2023-02-08T08:26:59;24.23;;;15.70;;
9906;SDS011;4992;51.628;6.664;2023-02-08T08:29:25;25.73;;;16.33;;
9906;SDS011;4992;51.628;6.664;2023-02-08T08:31:51;25.63;;;15.10;;
9906;SDS011;4992;51.628;6.664;2023-02-08T08:34:17;23.57;;;15.93;;
9906;SDS011;4992;51.628;6.664;2023-02-08T08:36:43;24.23;;;16.30;;
9906;SDS011;4992;51.628;6.664;2023-02-08T08:39:09;23.20;;;15.70;;
9906;SDS011;4992;51.628;6.664;2023-02-08T08:41:35;22.97;;;14.83;;
9906;SDS011;4992;51.628;6.664;2023-02-08T08:44:02;24.50;;;16.83;;
9906;SDS011;4992;51.628;6.664;2023-02-08T08:46:28;26.30;;;15.17;;
9906;SDS011;4992;51.628;6.664;2023-02-08T08:48:54;24.43;;;15.67;;
9906;SDS011;4992;51.628;6.664;2023-02-08T08:51:20;21.93;;;15.30;;
9906;SDS011;4992;51.628;6.664;2023-02-08T08:53:46;24.80;;;17.53;;
9906;SDS011;4992;51.628;6.664;2023-02-08T08:56:12;26.23;;;19.17;;
9906;SDS011;4992;51.628;6.664;2023-02-08T08:58:37;27.73;;;15.63;;
9906;SDS011;4992;51.628;6.664;2023-02-08T09:01:03;20.27;;;12.53;;
9906;SDS011;4992;51.628;6.664;2023-02-08T09:03:29;20.13;;;12.43;;
9906;SDS011;4992;51.628;6.664;2023-02-08T09:05:55;18.80;;;11.50;;
9906;SDS011;4992;51.628;6.664;2023-02-08T09:08:22;16.27;;;11.10;;
9906;SDS011;4992;51.628;6.664;2023-02-08T09:10:47;17.97;;;10.50;;
9906;SDS011;4992;51.628;6.664;2023-02-08T09:13:13;13.43;;;9.23;;
9906;SDS011;4992;51.628;6.664;2023-02-08T09:15:43;13.90;;;10.37;;
9906;SDS011;4992;51.628;6.664;2023-02-08T09:18:09;9.53;;;6.80;;
9906;SDS011;4992;51.628;6.664;2023-02-08T09:20:38;12.97;;;7.40;;
9906;SDS011;4992;51.628;6.664;2023-02-08T09:23:05;9.57;;;7.47;;
9906;SDS011;4992;51.628;6.664;2023-02-08T09:25:31;8.97;;;6.50;;
9906;SDS011;4992;51.628;6.664;2023-02-08T09:27:57;12.73;;;6.77;;
9906;SDS011;4992;51.628;6.664;2023-02-08T09:30:23;9.83;;;6.77;;
9906;SDS011;4992;51.628;6.664;2023-02-08T09:32:49;9.53;;;6.87;;
9906;SDS011;4992;51.628;6.664;2023-02-08T09:35:15;8.30;;;6.87;;
9906;SDS011;4992;51.628;6.664;2023-02-08T09:37:41;10.90;;;7.23;;
9906;SDS011;4992;51.628;6.664;2023-02-08T09:40:12;10.80;;;7.73;;
9906;SDS011;4992;51.628;6.664;2023-02-08T09:42:45;13.27;;;6.87;;
9906;SDS011;4992;51.628;6.664;2023-02-08T09:45:28;9.93;;;6.73;;
9906;SDS011;4992;51.628;6.664;2023-02-08T09:48:13;12.77;;;6.97;;
9906;SDS011;4992;51.628;6.664;2023-02-08T09:50:55;8.40;;;6.73;;
9906;SDS011;4992;51.628;6.664;2023-02-08T09:53:35;8.77;;;6.57;;
9906;SDS011;4992;51.628;6.664;2023-02-08T09:56:04;11.17;;;6.10;;
9906;SDS011;4992;51.628;6.664;2023-02-08T09:58:43;10.93;;;7.00;;
9906;SDS011;4992;51.628;6.664;2023-02-08T10:01:15;9.20;;;6.67;;
9906;SDS011;4992;51.628;6.664;2023-02-08T10:03:43;10.33;;;6.80;;
9906;SDS011;4992;51.628;6.664;2023-02-08T10:06:10;10.47;;;6.27;;
9906;SDS011;4992;51.628;6.664;2023-02-08T10:08:37;10.67;;;5.60;;
9906;SDS011;4992;51.628;6.664;2023-02-08T10:24:44;9.40;;;6.77;;
9906;SDS011;4992;51.628;6.664;2023-02-08T10:27:16;11.30;;;6.83;;
9906;SDS011;4992;51.628;6.664;2023-02-08T10:29:47;17.23;;;8.10;;
9906;SDS011;4992;51.628;6.664;2023-02-08T10:32:19;12.00;;;6.07;;
9906;SDS011;4992;51.628;6.664;2023-02-08T10:35:48;14.00;;;6.20;;
9906;SDS011;4992;51.628;6.664;2023-02-08T10:37:43;13.77;;;6.67;;
9906;SDS011;4992;51.628;6.664;2023-02-08T10:40:14;11.03;;;5.90;;
9906;SDS011;4992;51.628;6.664;2023-02-08T10:42:41;8.83;;;5.70;;
9906;SDS011;4992;51.628;6.664;2023-02-08T10:45:15;8.93;;;5.97;;
9906;SDS011;4992;51.628;6.664;2023-02-08T10:47:45;13.13;;;6.33;;
9906;SDS011;4992;51.628;6.664;2023-02-08T10:50:28;10.83;;;5.47;;
9906;SDS011;4992;51.628;6.664;2023-02-08T10:52:56;13.67;;;6.40;;
9906;SDS011;4992;51.628;6.664;2023-02-08T10:55:22;10.30;;;5.67;;
9906;SDS011;4992;51.628;6.664;2023-02-08T10:57:49;10.37;;;5.33;;
9906;SDS011;4992;51.628;6.664;2023-02-08T11:00:18;11.70;;;5.83;;
9906;SDS011;4992;51.628;6.664;2023-02-08T11:02:44;12.93;;;5.27;;
9906;SDS011;4992;51.628;6.664;2023-02-08T11:05:12;12.90;;;5.67;;
9906;SDS011;4992;51.628;6.664;2023-02-08T11:07:39;8.87;;;5.73;;
9906;SDS011;4992;51.628;6.664;2023-02-08T11:10:20;6.23;;;4.73;;
9906;SDS011;4992;51.628;6.664;2023-02-08T11:15:45;10.37;;;4.57;;
9906;SDS011;4992;51.628;6.664;2023-02-08T11:18:17;7.80;;;4.30;;
9906;SDS011;4992;51.628;6.664;2023-02-08T11:20:46;8.77;;;4.00;;
9906;SDS011;4992;51.628;6.664;2023-02-08T11:25:50;4.40;;;3.37;;
9906;SDS011;4992;51.628;6.664;2023-02-08T11:28:20;7.37;;;3.93;;
9906;SDS011;4992;51.628;6.664;2023-02-08T11:30:57;5.33;;;4.07;;
9906;SDS011;4992;51.628;6.664;2023-02-08T11:33:23;7.40;;;4.23;;
9906;SDS011;4992;51.628;6.664;2023-02-08T11:36:01;6.57;;;4.10;;
9906;SDS011;4992;51.628;6.664;2023-02-08T11:38:27;5.57;;;3.97;;
9906;SDS011;4992;51.628;6.664;2023-02-08T11:40:55;10.40;;;4.90;;
9906;SDS011;4992;51.628;6.664;2023-02-08T11:43:31;6.47;;;4.00;;
9906;SDS011;4992;51.628;6.664;2023-02-08T11:45:57;5.60;;;4.40;;
9906;SDS011;4992;51.628;6.664;2023-02-08T11:48:31;11.50;;;4.57;;
9906;SDS011;4992;51.628;6.664;2023-02-08T11:50:59;5.73;;;5.03;;
9906;SDS011;4992;51.628;6.664;2023-02-08T11:53:31;6.37;;;4.67;;
9906;SDS011;4992;51.628;6.664;2023-02-08T11:56:14;5.87;;;3.77;;
9906;SDS011;4992;51.628;6.664;2023-02-08T11:58:40;6.10;;;4.15;;
9906;SDS011;4992;51.628;6.664;2023-02-08T12:01:18;8.70;;;3.83;;
9906;SDS011;4992;51.628;6.664;2023-02-08T12:03:45;6.13;;;3.97;;
9906;SDS011;4992;51.628;6.664;2023-02-08T12:11:39;9.20;;;4.00;;
9906;SDS011;4992;51.628;6.664;2023-02-08T12:14:16;8.00;;;4.10;;
9906;SDS011;4992;51.628;6.664;2023-02-08T12:21:46;6.75;;;3.90;;
9906;SDS011;4992;51.628;6.664;2023-02-08T12:26:53;7.72;;;4.47;;
9906;SDS011;4992;51.628;6.664;2023-02-08T12:29:40;5.90;;;3.80;;
9906;SDS011;4992;51.628;6.664;2023-02-08T12:32:17;8.57;;;4.22;;
9906;SDS011;4992;51.628;6.664;2023-02-08T12:35:02;10.95;;;4.40;;
9906;SDS011;4992;51.628;6.664;2023-02-08T12:40:20;7.13;;;4.93;;
9906;SDS011;4992;51.628;6.664;2023-02-08T12:43:19;5.43;;;3.70;;
9906;SDS011;4992;51.628;6.664;2023-02-08T12:45:51;7.03;;;4.13;;
9906;SDS011;4992;51.628;6.664;2023-02-08T12:50:52;8.85;;;4.30;;
9906;SDS011;4992;51.628;6.664;2023-02-08T12:56:05;8.10;;;4.53;;
9906;SDS011;4992;51.628;6.664;2023-02-08T12:58:34;7.07;;;4.10;;
9906;SDS011;4992;51.628;6.664;2023-02-08T13:01:10;6.40;;;4.05;;
9906;SDS011;4992;51.628;6.664;2023-02-08T13:06:11;6.95;;;4.05;;
9906;SDS011;4992;51.628;6.664;2023-02-08T13:08:40;10.13;;;4.55;;
9906;SDS011;4992;51.628;6.664;2023-02-08T13:11:18;5.13;;;4.28;;
9906;SDS011;4992;51.628;6.664;2023-02-08T13:13:54;7.38;;;4.32;;
9906;SDS011;4992;51.628;6.664;2023-02-08T13:16:23;6.30;;;4.05;;
9906;SDS011;4992;51.628;6.664;2023-02-08T13:18:52;9.95;;;4.60;;
9906;SDS011;4992;51.628;6.664;2023-02-08T13:21:20;6.38;;;4.32;;
9906;SDS011;4992;51.628;6.664;2023-02-08T13:23:47;8.52;;;4.45;;
9906;SDS011;4992;51.628;6.664;2023-02-08T13:26:14;5.72;;;3.95;;
9906;SDS011;4992;51.628;6.664;2023-02-08T13:28:49;19.83;;;12.80;;
9906;SDS011;4992;51.628;6.664;2023-02-08T13:31:17;7.05;;;5.35;;
9906;SDS011;4992;51.628;6.664;2023-02-08T13:36:48;7.75;;;4.40;;
9906;SDS011;4992;51.628;6.664;2023-02-08T13:39:06;7.93;;;3.72;;
9906;SDS011;4992;51.628;6.664;2023-02-08T13:41:33;5.38;;;3.83;;
9906;SDS011;4992;51.628;6.664;2023-02-08T13:44:02;6.15;;;3.92;;
9906;SDS011;4992;51.628;6.664;2023-02-08T13:46:34;8.35;;;4.70;;
9906;SDS011;4992;51.628;6.664;2023-02-08T13:49:01;7.35;;;4.18;;
9906;SDS011;4992;51.628;6.664;2023-02-08T13:56:38;6.65;;;4.40;;
9906;SDS011;4992;51.628;6.664;2023-02-08T14:04:46;4.38;;;3.58;;
9906;SDS011;4992;51.628;6.664;2023-02-08T14:09:56;6.10;;;4.05;;
9906;SDS011;4992;51.628;6.664;2023-02-08T14:12:35;4.32;;;3.47;;
9906;SDS011;4992;51.628;6.664;2023-02-08T14:17:50;9.25;;;3.70;;
9906;SDS011;4992;51.628;6.664;2023-02-08T14:20:32;3.40;;;2.97;;
9906;SDS011;4992;51.628;6.664;2023-02-08T14:23:01;5.75;;;3.22;;
9906;SDS011;4992;51.628;6.664;2023-02-08T14:25:38;7.18;;;3.53;;
9906;SDS011;4992;51.628;6.664;2023-02-08T14:28:04;5.32;;;3.17;;
9906;SDS011;4992;51.628;6.664;2023-02-08T14:30:33;3.35;;;3.00;;
9906;SDS011;4992;51.628;6.664;2023-02-08T14:35:32;2.97;;;2.63;;
9906;SDS011;4992;51.628;6.664;2023-02-08T14:45:42;5.15;;;3.75;;
9906;SDS011;4992;51.628;6.664;2023-02-08T14:48:16;7.55;;;3.58;;
9906;SDS011;4992;51.628;6.664;2023-02-08T14:58:35;3.80;;;3.22;;
9906;SDS011;4992;51.628;6.664;2023-02-08T15:01:05;4.65;;;2.67;;
9906;SDS011;4992;51.628;6.664;2023-02-08T15:03:33;3.15;;;2.75;;
9906;SDS011;4992;51.628;6.664;2023-02-08T15:06:06;3.20;;;2.85;;
9906;SDS011;4992;51.628;6.664;2023-02-08T15:08:37;4.50;;;2.92;;
9906;SDS011;4992;51.628;6.664;2023-02-08T15:11:03;5.68;;;3.53;;
9906;SDS011;4992;51.628;6.664;2023-02-08T15:13:29;4.30;;;3.50;;
9906;SDS011;4992;51.628;6.664;2023-02-08T15:15:55;4.53;;;3.63;;
9906;SDS011;4992;51.628;6.664;2023-02-08T15:18:22;4.72;;;3.35;;
9906;SDS011;4992;51.628;6.664;2023-02-08T15:21:03;4.70;;;3.38;;
9906;SDS011;4992;51.628;6.664;2023-02-08T15:23:29;3.95;;;3.05;;
9906;SDS011;4992;51.628;6.664;2023-02-08T15:25:57;4.88;;;2.88;;
9906;SDS011;4992;51.628;6.664;2023-02-08T15:28:24;4.18;;;2.75;;
9906;SDS011;4992;51.628;6.664;2023-02-08T15:30:52;6.57;;;3.17;;
9906;SDS011;4992;51.628;6.664;2023-02-08T15:33:19;4.68;;;3.25;;
9906;SDS011;4992;51.628;6.664;2023-02-08T15:35:46;6.43;;;2.97;;
9906;SDS011;4992;51.628;6.664;2023-02-08T15:38:19;4.93;;;3.20;;
9906;SDS011;4992;51.628;6.664;2023-02-08T15:40:59;5.38;;;2.78;;
9906;SDS011;4992;51.628;6.664;2023-02-08T15:43:25;3.78;;;2.95;;
9906;SDS011;4992;51.628;6.664;2023-02-08T15:45:55;4.22;;;2.70;;
9906;SDS011;4992;51.628;6.664;2023-02-08T15:48:21;3.90;;;3.10;;
9906;SDS011;4992;51.628;6.664;2023-02-08T15:50:48;3.72;;;2.67;;
9906;SDS011;4992;51.628;6.664;2023-02-08T15:53:14;3.53;;;2.60;;
9906;SDS011;4992;51.628;6.664;2023-02-08T15:55:48;3.20;;;2.33;;
9906;SDS011;4992;51.628;6.664;2023-02-08T15:58:17;8.27;;;3.20;;
9906;SDS011;4992;51.628;6.664;2023-02-08T16:00:52;4.70;;;3.20;;
9906;SDS011;4992;51.628;6.664;2023-02-08T16:03:19;6.77;;;4.53;;
9906;SDS011;4992;51.628;6.664;2023-02-08T16:05:49;6.37;;;4.30;;
9906;SDS011;4992;51.628;6.664;2023-02-08T16:08:19;8.67;;;4.70;;
9906;SDS011;4992;51.628;6.664;2023-02-08T16:10:47;8.00;;;5.73;;
9906;SDS011;4992;51.628;6.664;2023-02-08T16:13:15;9.20;;;5.83;;
9906;SDS011;4992;51.628;6.664;2023-02-08T16:15:46;7.43;;;5.77;;
9906;SDS011;4992;51.628;6.664;2023-02-08T16:18:29;10.07;;;6.90;;
9906;SDS011;4992;51.628;6.664;2023-02-08T16:20:57;14.27;;;8.43;;
9906;SDS011;4992;51.628;6.664;2023-02-08T16:23:30;16.57;;;9.20;;
9906;SDS011;4992;51.628;6.664;2023-02-08T16:26:07;12.50;;;8.53;;
9906;SDS011;4992;51.628;6.664;2023-02-08T16:28:34;15.33;;;8.03;;
9906;SDS011;4992;51.628;6.664;2023-02-08T16:31:00;16.77;;;9.33;;
9906;SDS011;4992;51.628;6.664;2023-02-08T16:33:27;14.03;;;8.70;;
9906;SDS011;4992;51.628;6.664;2023-02-08T16:35:53;17.40;;;8.70;;
9906;SDS011;4992;51.628;6.664;2023-02-08T16:38:26;11.80;;;8.37;;
9906;SDS011;4992;51.628;6.664;2023-02-08T16:40:53;12.60;;;7.23;;
9906;SDS011;4992;51.628;6.664;2023-02-08T16:43:25;19.37;;;7.07;;
9906;SDS011;4992;51.628;6.664;2023-02-08T16:51:35;16.53;;;8.40;;
9906;SDS011;4992;51.628;6.664;2023-02-08T16:54:10;13.60;;;6.97;;
9906;SDS011;4992;51.628;6.664;2023-02-08T16:56:37;14.43;;;7.83;;
9906;SDS011;4992;51.628;6.664;2023-02-08T16:59:04;14.60;;;7.73;;
9906;SDS011;4992;51.628;6.664;2023-02-08T17:01:30;17.47;;;8.33;;
9906;SDS011;4992;51.628;6.664;2023-02-08T17:03:57;18.40;;;9.70;;
9906;SDS011;4992;51.628;6.664;2023-02-08T17:06:27;25.07;;;10.90;;